Bookmark and Share
Track history (hours):
 

Overseas Milos

Last reported at 2014-Mar-30 20:19 UTC. Time now 2014-Apr-25 06:16 UTC.
Position N 50°13' W 001°41'.
Warning: this ship's position is 25 days out of date.

Length 183 m; draft 10 m.

Type: Ship (hazmat cat D). MMSI: 538004376.

NotesDate/timePositionNaut miles runAvg speedWind from/ knotsBaromVisibWave heightAir tempDewpointWater temp
2014-Mar-30 20:19N 50°13' W 001°41'7 9.6
2014-Mar-30 19:33N 50°15' W 001°30'10 9.9
2014-Mar-30 18:33N 50°17' W 001°15'1211.8
2014-Mar-30 17:33N 50°20' W 000°58'1414.3
2014-Mar-30 16:33N 50°24' W 000°36'1515.4
2014-Mar-30 15:33N 50°28' W 000°13'1615.6
2014-Mar-30 14:33N 50°32' E 000°11'1515.2
2014-Mar-30 13:33N 50°36' E 000°34'1414.1
2014-Mar-30 12:33N 50°45' E 000°52'1212.3
2014-Mar-30 11:33N 50°52' E 001°07'1111.4
2014-Mar-30 10:33N 51°00' E 001°20'1211.9
2014-Mar-30 09:33N 51°08' E 001°35'1312.9
2014-Mar-30 08:34N 51°18' E 001°48'1515.1
2014-Mar-30 07:34N 51°31' E 002°01'1515.2
2014-Mar-30 06:33N 51°42' E 002°17'1414.3
2014-Mar-30 05:33N 51°53' E 002°33'1413.6
2014-Mar-30 04:33N 52°03' E 002°47'1412.9
2014-Mar-30 03:27N 52°13' E 003°02'1212.4
2014-Mar-30 02:28N 52°23' E 003°15'1112.1
2014-Mar-30 01:33N 52°31' E 003°27'1313.0
2014-Mar-30 00:34N 52°31' E 003°49'1211.8
2014-Mar-29 23:33N 52°31' E 004°08'10 9.8
2014-Mar-29 22:33N 52°29' E 004°24'8 7.8
2014-Mar-29 21:34N 52°28' E 004°36'1 1.2
2014-Mar-29 20:33N 52°28' E 004°38'6 5.7
2014-Mar-29 19:33N 52°25' E 004°46'1 0.7
2014-Mar-29 18:33N 52°24' E 004°46'0 0.0
2014-Mar-29 17:33N 52°24' E 004°46'0 0.0
2014-Mar-29 16:33N 52°24' E 004°46'0 0.0
2014-Mar-29 15:33N 52°24' E 004°46'0 0.0
2014-Mar-29 14:33N 52°24' E 004°46'0 0.0
2014-Mar-29 13:33N 52°24' E 004°46'0 0.0
2014-Mar-29 12:33N 52°24' E 004°46'0 0.0
2014-Mar-29 11:33N 52°24' E 004°46'0 0.0
2014-Mar-29 10:33N 52°24' E 004°46'0 0.0
2014-Mar-29 09:33N 52°24' E 004°46'0 0.0
2014-Mar-29 08:33N 52°24' E 004°46'0 0.0
2014-Mar-29 07:30N 52°24' E 004°46'0 0.0
2014-Mar-29 06:33N 52°24' E 004°46'0 0.0
2014-Mar-29 05:33N 52°24' E 004°46'0 0.0
2014-Mar-29 04:30N 52°24' E 004°46'0 0.0
2014-Mar-29 03:33N 52°24' E 004°46'0 0.0
2014-Mar-29 02:33N 52°24' E 004°46'0 0.0
2014-Mar-29 01:33N 52°24' E 004°46'0 0.0
2014-Mar-29 00:33N 52°24' E 004°46'0 0.0
2014-Mar-28 23:33N 52°24' E 004°46'0 0.0
2014-Mar-28 22:33N 52°24' E 004°46'0 0.0
2014-Mar-28 21:30N 52°24' E 004°46'0 0.0
2014-Mar-28 20:33N 52°24' E 004°46'0 0.0
2014-Mar-28 19:33N 52°24' E 004°46'0 0.0
2014-Mar-28 18:33N 52°24' E 004°46'0 0.0
2014-Mar-28 17:33N 52°24' E 004°46'0 0.0
2014-Mar-28 16:21N 52°24' E 004°46'0 0.0
2014-Mar-28 15:24N 52°24' E 004°46'0 0.0
2014-Mar-28 14:33N 52°24' E 004°46'0 0.0
2014-Mar-28 13:33N 52°24' E 004°46'0 0.0
2014-Mar-28 12:33N 52°24' E 004°46'0 0.0
2014-Mar-28 11:33N 52°24' E 004°46'0 0.0
2014-Mar-28 10:33N 52°24' E 004°46'0 0.0
2014-Mar-28 09:33N 52°24' E 004°46'0 0.0
2014-Mar-28 08:33N 52°24' E 004°46'0 0.0
2014-Mar-28 07:33N 52°24' E 004°46'0 0.0
2014-Mar-28 06:21N 52°24' E 004°46'0 0.0
2014-Mar-28 05:33N 52°24' E 004°46'0 0.0
2014-Mar-28 04:33N 52°24' E 004°46'0 0.0
2014-Mar-28 03:33N 52°24' E 004°46'0 0.0
2014-Mar-28 02:33N 52°24' E 004°46'0 0.0
2014-Mar-28 01:33N 52°24' E 004°46'0 0.0
2014-Mar-28 00:33N 52°24' E 004°46'0 0.0
2014-Mar-27 23:33N 52°24' E 004°46'0 0.0
2014-Mar-27 22:33N 52°24' E 004°46'0 0.0
2014-Mar-27 21:33N 52°24' E 004°46'0 0.0
2014-Mar-27 20:33N 52°24' E 004°46'0 0.0
2014-Mar-27 19:33N 52°24' E 004°46'0 0.0
2014-Mar-27 18:33N 52°24' E 004°46'0 0.0
2014-Mar-27 17:33N 52°24' E 004°46'0 0.0
2014-Mar-27 16:33N 52°24' E 004°46'0 0.0
2014-Mar-27 15:33N 52°24' E 004°46'0 0.0
2014-Mar-27 14:33N 52°24' E 004°46'0 0.0
2014-Mar-27 13:33N 52°24' E 004°46'0 0.0
2014-Mar-27 12:33N 52°24' E 004°46'0 0.0
2014-Mar-27 11:33N 52°24' E 004°46'0 0.0
2014-Mar-27 10:30N 52°24' E 004°46'0 0.0
2014-Mar-27 09:33N 52°24' E 004°46'0 0.0
2014-Mar-27 08:30N 52°24' E 004°46'0 0.0
2014-Mar-27 07:33N 52°24' E 004°46'0 0.0
2014-Mar-27 06:27N 52°24' E 004°46'0 0.0
2014-Mar-27 05:33N 52°24' E 004°46'0 0.0
2014-Mar-27 04:33N 52°24' E 004°46'0 0.0
2014-Mar-27 03:33N 52°24' E 004°46'0 0.0
2014-Mar-27 02:30N 52°24' E 004°46'0 0.0
2014-Mar-27 01:33N 52°24' E 004°46'0 0.0
2014-Mar-27 00:33N 52°24' E 004°46'0 0.0
2014-Mar-26 23:33N 52°24' E 004°46'0 0.0
2014-Mar-26 20:33N 52°24' E 004°46'0 0.0
2014-Mar-26 19:27N 52°24' E 004°46'0 0.0
2014-Mar-26 17:33N 52°24' E 004°46'0 0.0
2014-Mar-26 16:33N 52°24' E 004°46'0 0.0
2014-Mar-26 15:30N 52°24' E 004°46'0 0.0
2014-Mar-26 14:30N 52°24' E 004°46'0 0.0
2014-Mar-26 13:33N 52°24' E 004°46'0 0.0
2014-Mar-26 12:33N 52°24' E 004°46'0 0.0
2014-Mar-26 11:33N 52°24' E 004°46'0 0.0
2014-Mar-26 10:33N 52°24' E 004°46'0 0.0
2014-Mar-26 09:33N 52°24' E 004°46'0 0.0
2014-Mar-26 08:33N 52°24' E 004°46'0 0.0
2014-Mar-26 07:33N 52°24' E 004°46'0 0.0
2014-Mar-26 00:33N 52°24' E 004°46'0 0.0
2014-Mar-25 23:33N 52°24' E 004°46'0 0.0
2014-Mar-25 22:33N 52°24' E 004°46'0 0.0
2014-Mar-25 21:33N 52°24' E 004°46'0 0.0
2014-Mar-25 20:33N 52°24' E 004°46'0 0.0
2014-Mar-25 19:24N 52°24' E 004°46'0 0.0
2014-Mar-25 17:33N 52°24' E 004°46'0 0.0
2014-Mar-25 16:33N 52°24' E 004°46'0 0.2
2014-Mar-25 15:33N 52°25' E 004°46'6 6.3
2014-Mar-25 14:33N 52°28' E 004°38'3 2.6
2014-Mar-25 13:34N 52°28' E 004°34'9 9.3
2014-Mar-25 12:34N 52°28' E 004°18'7514.3
2014-Mar-25 07:19N 51°47' E 002°37'1215.5
2014-Mar-25 06:33N 51°37' E 002°25'1515.5
2014-Mar-25 05:33N 51°24' E 002°12'1514.9
2014-Mar-25 04:34N 51°12' E 001°59'1515.2
2014-Mar-25 03:33N 51°03' E 001°39'1515.3
2014-Mar-25 02:33N 50°50' E 001°25'1414.0
2014-Mar-25 01:33N 50°38' E 001°14'  

Dump ship's entire track history

sailing weather and tide predictions

Overseas Milos — V7WR8 — position and weather